createdAt,value
2022-09-07T00:01:24.126Z,20.36
2022-09-07T00:03:56.670Z,20.39
2022-09-07T00:06:26.273Z,20.38
2022-09-07T00:08:54.770Z,20.35
2022-09-07T00:11:23.657Z,20.33
2022-09-07T00:13:52.226Z,20.31
2022-09-07T00:16:23.799Z,20.26
2022-09-07T00:18:56.238Z,20.23
2022-09-07T00:21:25.319Z,20.27
2022-09-07T00:23:54.779Z,20.30
2022-09-07T00:26:27.418Z,20.28
2022-09-07T00:28:59.406Z,20.30
2022-09-07T00:31:31.362Z,20.28
2022-09-07T00:34:03.002Z,20.32
2022-09-07T00:36:31.857Z,20.34
2022-09-07T00:39:00.564Z,20.39
2022-09-07T00:41:29.102Z,20.42
2022-09-07T00:44:00.574Z,20.41
2022-09-07T00:46:31.982Z,20.47
2022-09-07T00:49:09.487Z,20.45
2022-09-07T00:51:45.217Z,20.44
2022-09-07T00:54:19.231Z,20.47
2022-09-07T00:56:50.759Z,20.52
2022-09-07T00:59:23.858Z,20.55
2022-09-07T01:01:53.062Z,20.56
2022-09-07T01:04:23.976Z,20.63
2022-09-07T01:06:52.871Z,20.59
2022-09-07T01:09:24.061Z,20.60
2022-09-07T01:11:55.046Z,20.54
2022-09-07T01:14:28.041Z,20.55
2022-09-07T01:17:05.044Z,20.57
2022-09-07T01:20:18.109Z,20.47
2022-09-07T01:23:23.785Z,20.47
2022-09-07T01:26:17.835Z,20.52
2022-09-07T01:28:52.980Z,20.30
2022-09-07T01:31:28.913Z,20.28
2022-09-07T01:34:07.573Z,20.28
2022-09-07T01:36:47.994Z,20.23
2022-09-07T01:39:17.716Z,20.25
2022-09-07T01:41:54.211Z,20.35
2022-09-07T01:44:28.528Z,20.30
2022-09-07T01:47:04.032Z,20.28
2022-09-07T01:49:43.359Z,20.07
2022-09-07T01:52:18.347Z,20.00
2022-09-07T01:54:50.169Z,19.89
2022-09-07T01:57:27.800Z,19.85
2022-09-07T02:00:06.343Z,19.86
2022-09-07T02:02:46.530Z,19.75
2022-09-07T02:05:20.367Z,19.79
2022-09-07T02:07:55.250Z,19.86
2022-09-07T02:10:29.914Z,19.91
2022-09-07T02:13:03.245Z,19.99
2022-09-07T02:15:42.918Z,20.04
2022-09-07T02:18:14.266Z,20.12
2022-09-07T02:20:49.549Z,20.02
2022-09-07T02:23:23.182Z,19.91
2022-09-07T02:25:55.406Z,19.78
2022-09-07T02:28:29.627Z,19.84
2022-09-07T02:31:00.228Z,19.76
2022-09-07T02:33:29.384Z,19.68
2022-09-07T02:35:58.662Z,19.64
2022-09-07T02:38:27.650Z,19.43
2022-09-07T02:40:58.992Z,19.65
2022-09-07T02:43:28.696Z,19.68
2022-09-07T02:46:20.363Z,19.53
2022-09-07T02:49:03.315Z,19.54
2022-09-07T02:51:42.858Z,19.50
2022-09-07T02:54:27.371Z,19.17
2022-09-07T02:57:07.270Z,19.08
2022-09-07T03:00:01.309Z,19.13
2022-09-07T03:02:41.555Z,18.81
2022-09-07T03:05:18.387Z,18.74
2022-09-07T03:07:54.150Z,18.69
2022-09-07T03:10:23.474Z,18.75
2022-09-07T03:12:52.624Z,18.79
2022-09-07T03:15:24.504Z,18.75
2022-09-07T03:17:55.071Z,18.70
2022-09-07T03:20:24.645Z,18.68
2022-09-07T03:22:54.019Z,18.72
2022-09-07T03:25:22.866Z,18.75
2022-09-07T03:27:51.391Z,18.75
2022-09-07T03:30:20.334Z,18.69
2022-09-07T03:32:48.921Z,18.66
2022-09-07T03:35:19.393Z,18.68
2022-09-07T03:37:47.898Z,18.75
2022-09-07T03:40:17.506Z,18.76
2022-09-07T03:42:50.947Z,18.79
2022-09-07T03:45:19.727Z,18.93
2022-09-07T03:47:49.232Z,18.77
2022-09-07T03:50:19.333Z,18.81
2022-09-07T03:52:47.908Z,18.82
2022-09-07T03:55:16.587Z,18.88
2022-09-07T03:57:45.152Z,18.78
2022-09-07T04:00:16.201Z,19.08
2022-09-07T04:02:44.832Z,19.12
2022-09-07T04:05:13.482Z,19.19
2022-09-07T04:07:43.383Z,19.17
2022-09-07T04:10:12.131Z,19.27
2022-09-07T04:12:40.670Z,19.01
2022-09-07T04:15:10.671Z,19.04
2022-09-07T04:17:39.711Z,19.02
2022-09-07T04:20:10.180Z,19.11
2022-09-07T04:22:38.891Z,19.22
2022-09-07T04:25:09.762Z,19.44
2022-09-07T04:27:38.419Z,19.43
2022-09-07T04:30:08.420Z,19.29
2022-09-07T04:32:37.130Z,19.27
2022-09-07T04:35:06.806Z,19.27
2022-09-07T04:37:35.432Z,19.30
2022-09-07T04:40:04.786Z,19.17
2022-09-07T04:42:34.934Z,19.26
2022-09-07T04:45:03.708Z,19.15
2022-09-07T04:47:32.925Z,18.92
2022-09-07T04:50:01.621Z,18.87
2022-09-07T04:52:30.271Z,18.82
2022-09-07T04:54:58.908Z,18.78
2022-09-07T04:57:27.624Z,18.71
2022-09-07T04:59:57.504Z,18.64
2022-09-07T05:02:26.251Z,18.60
2022-09-07T05:04:57.331Z,18.58
2022-09-07T05:07:28.286Z,18.58
2022-09-07T05:09:57.324Z,18.58
2022-09-07T05:12:26.069Z,18.59
2022-09-07T05:14:55.958Z,18.57
2022-09-07T05:17:24.614Z,18.67
2022-09-07T05:19:53.438Z,18.73
2022-09-07T05:22:22.409Z,18.72
2022-09-07T05:24:51.024Z,18.76
2022-09-07T05:27:19.616Z,18.74
2022-09-07T05:30:04.574Z,18.81
2022-09-07T05:32:35.778Z,18.84
2022-09-07T05:35:04.374Z,18.77
2022-09-07T05:37:32.949Z,18.78
2022-09-07T05:40:01.461Z,18.73
2022-09-07T05:42:30.399Z,18.73
2022-09-07T05:44:59.315Z,18.73
2022-09-07T05:47:27.895Z,18.83
2022-09-07T05:49:57.848Z,18.81
2022-09-07T05:52:26.512Z,18.84
2022-09-07T05:55:03.217Z,18.88
2022-09-07T05:57:43.597Z,18.90
2022-09-07T06:00:14.594Z,18.90
2022-09-07T06:02:43.139Z,18.90
2022-09-07T06:05:13.158Z,18.93
2022-09-07T06:07:42.173Z,18.97
2022-09-07T06:12:59.573Z,19.04
2022-09-07T06:15:28.269Z,19.09
2022-09-07T06:17:56.842Z,19.26
2022-09-07T06:20:26.963Z,19.32
2022-09-07T06:22:55.633Z,19.32
2022-09-07T06:25:24.258Z,19.38
2022-09-07T06:27:54.064Z,19.34
2022-09-07T06:30:22.989Z,19.45
2022-09-07T06:32:51.636Z,19.45
2022-09-07T06:35:20.189Z,19.50
2022-09-07T06:37:50.142Z,19.58
2022-09-07T06:40:18.923Z,19.70
2022-09-07T06:42:47.472Z,19.79
2022-09-07T06:45:18.066Z,19.85
2022-09-07T06:47:46.595Z,19.95
2022-09-07T06:50:17.636Z,20.01
2022-09-07T06:55:36.139Z,20.36
2022-09-07T06:58:04.701Z,20.28
2022-09-07T07:00:33.403Z,20.60
2022-09-07T07:03:02.118Z,20.89
2022-09-07T07:05:31.762Z,21.51
2022-09-07T07:08:00.742Z,21.42
2022-09-07T07:10:29.387Z,21.48
2022-09-07T07:12:59.326Z,21.62
2022-09-07T07:15:29.741Z,22.08
2022-09-07T07:18:09.519Z,23.14
2022-09-07T07:20:47.824Z,24.20
2022-09-07T07:23:17.229Z,25.00
2022-09-07T07:25:46.234Z,25.59
2022-09-07T07:31:10.554Z,26.59
2022-09-07T07:33:41.536Z,27.34
2022-09-07T07:36:16.014Z,27.38
2022-09-07T07:39:03.602Z,27.68
2022-09-07T07:44:23.436Z,26.02
2022-09-07T07:46:52.716Z,25.37
2022-09-07T07:49:21.732Z,25.48
2022-09-07T07:54:40.602Z,26.42
2022-09-07T07:57:09.341Z,25.64
2022-09-07T07:59:40.025Z,26.60
2022-09-07T08:02:13.487Z,27.27
2022-09-07T08:04:44.616Z,27.40
2022-09-07T08:07:13.852Z,27.77
2022-09-07T08:09:44.085Z,26.86
2022-09-07T08:12:16.657Z,26.55
2022-09-07T08:14:48.455Z,25.85
2022-09-07T08:17:18.871Z,25.74
2022-09-07T08:19:47.402Z,25.07
2022-09-07T08:22:15.738Z,24.25
2022-09-07T08:24:44.167Z,24.45
2022-09-07T08:27:12.493Z,24.74
2022-09-07T08:29:40.912Z,24.74
2022-09-07T08:32:10.602Z,25.09
2022-09-07T08:34:40.785Z,25.89
2022-09-07T08:37:09.106Z,25.40
2022-09-07T08:39:37.685Z,26.12
2022-09-07T08:42:25.533Z,25.85
2022-09-07T08:45:07.884Z,26.20
2022-09-07T08:47:42.798Z,26.29
2022-09-07T08:50:18.275Z,26.51
2022-09-07T08:52:52.042Z,26.44
2022-09-07T08:55:27.896Z,26.52
2022-09-07T08:58:04.255Z,26.10
2022-09-07T09:00:36.055Z,25.74
2022-09-07T09:06:04.511Z,25.83
2022-09-07T09:08:49.507Z,25.73
2022-09-07T09:11:25.661Z,25.96
2022-09-07T09:14:04.107Z,25.62
2022-09-07T09:16:42.843Z,25.92
2022-09-07T09:19:51.325Z,26.43
2022-09-07T09:22:22.826Z,26.81
2022-09-07T09:24:59.115Z,27.10
2022-09-07T09:27:27.561Z,27.79
2022-09-07T09:29:55.931Z,27.85
2022-09-07T09:32:41.987Z,28.02
2022-09-07T09:35:23.529Z,28.34
2022-09-07T09:37:51.945Z,28.79
2022-09-07T09:40:25.540Z,28.69
2022-09-07T09:43:03.024Z,29.13
2022-09-07T09:48:34.526Z,29.24
2022-09-07T09:54:05.945Z,29.38
2022-09-07T09:56:40.397Z,29.94
2022-09-07T10:05:30.489Z,29.53
2022-09-07T10:07:59.059Z,29.84
2022-09-07T10:10:29.721Z,29.76
2022-09-07T10:12:58.503Z,29.77
2022-09-07T10:15:41.319Z,29.60
2022-09-07T10:18:21.275Z,29.49
2022-09-07T10:20:51.181Z,29.46
2022-09-07T10:23:25.359Z,29.46
2022-09-07T10:25:53.732Z,29.51
2022-09-07T10:28:24.880Z,29.92
2022-09-07T10:31:15.384Z,30.06
2022-09-07T10:36:49.961Z,30.05
2022-09-07T10:39:26.125Z,30.45
2022-09-07T10:42:08.655Z,29.82
2022-09-07T10:44:54.279Z,29.93
2022-09-07T10:47:35.163Z,29.68
2022-09-07T10:50:24.952Z,29.41
2022-09-07T10:53:39.141Z,29.43
2022-09-07T10:56:12.935Z,29.43
2022-09-07T10:59:08.989Z,29.88
2022-09-07T11:01:54.349Z,29.62
2022-09-07T11:04:44.329Z,29.79
2022-09-07T11:07:34.041Z,29.95
2022-09-07T11:10:18.169Z,29.69
2022-09-07T11:12:47.429Z,29.47
2022-09-07T11:15:22.427Z,29.11
2022-09-07T11:17:56.692Z,29.36
2022-09-07T11:20:30.958Z,29.34
2022-09-07T11:23:13.000Z,29.41
2022-09-07T11:25:52.172Z,29.12
2022-09-07T11:28:27.404Z,29.54
2022-09-07T11:31:01.499Z,29.09
2022-09-07T11:33:35.605Z,28.88
2022-09-07T11:36:12.193Z,29.17
2022-09-07T11:39:10.846Z,29.27
2022-09-07T11:41:48.434Z,29.17
2022-09-07T11:44:24.827Z,28.98
2022-09-07T11:46:57.926Z,28.58
2022-09-07T11:49:27.097Z,28.76
2022-09-07T11:52:16.103Z,29.13
2022-09-07T11:54:50.322Z,28.75
2022-09-07T11:57:50.488Z,28.82
2022-09-07T12:00:24.799Z,28.58
2022-09-07T12:03:38.121Z,28.84
2022-09-07T12:06:37.133Z,28.77
2022-09-07T12:09:20.312Z,28.90
2022-09-07T12:12:21.674Z,28.51
2022-09-07T12:15:06.934Z,28.26
2022-09-07T12:17:48.531Z,28.35
2022-09-07T12:20:19.450Z,28.45
2022-09-07T12:23:04.476Z,28.32
2022-09-07T12:25:35.194Z,28.02
2022-09-07T12:28:04.030Z,28.45
2022-09-07T12:30:57.837Z,28.30
2022-09-07T12:33:33.018Z,28.17
2022-09-07T12:36:02.175Z,28.16
2022-09-07T12:39:24.834Z,28.26
2022-09-07T12:44:43.980Z,28.13
2022-09-07T12:47:31.144Z,28.25
2022-09-07T12:50:14.925Z,28.34
2022-09-07T12:53:10.077Z,28.20
2022-09-07T12:59:29.500Z,28.27
2022-09-07T13:02:12.442Z,28.07
2022-09-07T13:05:03.176Z,27.86
2022-09-07T13:08:15.069Z,27.83
2022-09-07T13:10:45.034Z,27.71
2022-09-07T13:17:15.968Z,27.54
2022-09-07T13:20:08.349Z,27.27
2022-09-07T13:22:56.280Z,26.24
2022-09-07T13:25:46.897Z,26.04
2022-09-07T13:28:44.296Z,25.65
2022-09-07T13:31:43.146Z,25.75
2022-09-07T13:34:49.844Z,25.55
2022-09-07T13:37:24.125Z,25.44
2022-09-07T13:39:56.374Z,25.63
2022-09-07T13:42:27.453Z,25.60
2022-09-07T13:44:58.236Z,25.72
2022-09-07T13:47:40.116Z,25.70
2022-09-07T13:50:25.078Z,25.82
2022-09-07T13:53:26.146Z,25.85
2022-09-07T13:56:04.299Z,25.85
2022-09-07T13:58:37.721Z,26.05
2022-09-07T14:01:17.925Z,26.13
2022-09-07T14:03:52.014Z,26.20
2022-09-07T14:06:35.033Z,26.32
2022-09-07T14:09:12.582Z,26.29
2022-09-07T14:11:44.015Z,26.28
2022-09-07T14:14:21.950Z,26.54
2022-09-07T14:16:55.525Z,26.28
2022-09-07T14:19:27.575Z,26.29
2022-09-07T14:22:01.888Z,26.16
2022-09-07T14:24:37.738Z,25.99
2022-09-07T14:27:17.447Z,26.03
2022-09-07T14:29:45.821Z,26.10
2022-09-07T14:32:19.588Z,26.13
2022-09-07T14:34:48.593Z,26.25
2022-09-07T14:37:19.219Z,26.31
2022-09-07T14:39:52.708Z,26.39
2022-09-07T14:42:24.612Z,26.46
2022-09-07T14:45:21.017Z,26.60
2022-09-07T14:47:52.531Z,26.62
2022-09-07T14:50:24.844Z,26.61
2022-09-07T14:55:48.089Z,26.59
2022-09-07T14:58:25.302Z,26.70
2022-09-07T15:03:57.076Z,26.63
2022-09-07T15:09:33.389Z,26.68
2022-09-07T15:12:27.341Z,26.58
2022-09-07T15:15:13.453Z,26.51
2022-09-07T15:17:43.368Z,26.59
2022-09-07T15:20:36.427Z,26.51
2022-09-07T15:23:06.422Z,26.39
2022-09-07T15:25:35.831Z,26.42
2022-09-07T15:28:06.595Z,26.45
2022-09-07T15:30:35.311Z,26.23
2022-09-07T15:33:03.876Z,26.41
2022-09-07T15:35:32.271Z,26.40
2022-09-07T15:38:01.802Z,26.29
2022-09-07T15:40:51.314Z,26.22
2022-09-07T15:43:29.288Z,26.34
2022-09-07T15:45:57.776Z,26.43
2022-09-07T15:48:26.341Z,26.42
2022-09-07T15:51:04.793Z,26.33
2022-09-07T15:56:24.124Z,26.33
2022-09-07T15:58:57.882Z,26.38
2022-09-07T16:04:15.899Z,26.36
2022-09-07T16:06:44.599Z,26.49
2022-09-07T16:09:12.904Z,26.40
2022-09-07T16:11:41.243Z,26.57
2022-09-07T16:14:12.364Z,26.56
2022-09-07T16:19:29.113Z,26.46
2022-09-07T16:21:57.825Z,26.34
2022-09-07T16:24:27.849Z,26.43
2022-09-07T16:26:56.480Z,26.40
2022-09-07T16:29:26.298Z,26.28
2022-09-07T16:34:43.471Z,26.17
2022-09-07T16:37:11.873Z,25.98
2022-09-07T16:39:40.226Z,25.90
2022-09-07T16:42:09.151Z,25.92
2022-09-07T16:44:39.056Z,25.92
2022-09-07T16:47:08.117Z,25.82
2022-09-07T16:49:36.446Z,25.74
2022-09-07T16:52:10.580Z,25.72
2022-09-07T16:54:39.205Z,25.65
2022-09-07T16:57:07.817Z,25.61
2022-09-07T16:59:36.212Z,25.50
2022-09-07T17:02:05.947Z,25.48
2022-09-07T17:04:34.350Z,25.49
2022-09-07T17:07:02.699Z,25.43
2022-09-07T17:09:31.062Z,25.41
2022-09-07T17:11:59.399Z,25.39
2022-09-07T17:14:28.294Z,25.34
2022-09-07T17:16:56.711Z,25.33
2022-09-07T17:19:30.036Z,25.29
2022-09-07T17:21:59.918Z,25.24
2022-09-07T17:24:32.239Z,25.19
2022-09-07T17:27:01.207Z,25.15
2022-09-07T17:29:30.792Z,25.10
2022-09-07T17:34:51.279Z,25.02
2022-09-07T17:37:19.907Z,24.98
2022-09-07T17:39:48.353Z,24.98
2022-09-07T17:42:17.040Z,24.93
2022-09-07T17:44:45.410Z,24.94
2022-09-07T17:47:13.974Z,24.85
2022-09-07T17:49:42.311Z,24.91
2022-09-07T17:52:12.000Z,24.90
2022-09-07T17:54:40.614Z,24.87
2022-09-07T17:57:08.951Z,24.85
2022-09-07T18:02:25.655Z,24.83
2022-09-07T18:04:54.079Z,24.86
2022-09-07T18:07:23.831Z,24.80
2022-09-07T18:09:52.570Z,24.70
2022-09-07T18:12:20.969Z,24.63
2022-09-07T18:14:49.278Z,24.61
2022-09-07T18:17:17.637Z,24.64
2022-09-07T18:19:45.923Z,24.53
2022-09-07T18:22:15.307Z,24.57
2022-09-07T18:24:45.351Z,24.49
2022-09-07T18:27:13.756Z,24.50
2022-09-07T18:29:43.410Z,24.47
2022-09-07T18:32:11.710Z,24.39
2022-09-07T18:34:41.449Z,24.38
2022-09-07T18:37:12.120Z,24.36
2022-09-07T18:39:41.143Z,24.34
2022-09-07T18:42:11.313Z,24.30
2022-09-07T18:47:29.396Z,24.30
2022-09-07T18:49:58.671Z,24.28
2022-09-07T18:55:16.352Z,24.29
2022-09-07T18:57:46.529Z,24.23
